sensor_id;sensor_type;location;lat;lon;timestamp;temperature;humidity
31455;DHT22;18084;53.028;8.834;2023-02-24T00:01:17;3.90;99.90
31455;DHT22;18084;53.028;8.834;2023-02-24T00:03:55;3.50;99.90
31455;DHT22;18084;53.028;8.834;2023-02-24T00:06:21;3.80;99.90
31455;DHT22;18084;53.028;8.834;2023-02-24T00:08:47;3.70;99.90
31455;DHT22;18084;53.028;8.834;2023-02-24T00:11:14;3.70;99.90
31455;DHT22;18084;53.028;8.834;2023-02-24T00:13:40;3.50;99.90
31455;DHT22;18084;53.028;8.834;2023-02-24T00:16:10;3.60;99.90
31455;DHT22;18084;53.028;8.834;2023-02-24T00:18:37;3.50;99.90
31455;DHT22;18084;53.028;8.834;2023-02-24T00:21:03;3.30;99.90
31455;DHT22;18084;53.028;8.834;2023-02-24T00:23:29;3.60;99.90
31455;DHT22;18084;53.028;8.834;2023-02-24T00:25:58;3.40;99.90
31455;DHT22;18084;53.028;8.834;2023-02-24T00:28:24;3.80;99.90
31455;DHT22;18084;53.028;8.834;2023-02-24T00:30:50;3.40;99.90
31455;DHT22;18084;53.028;8.834;2023-02-24T00:33:15;3.70;99.90
31455;DHT22;18084;53.028;8.834;2023-02-24T00:35:45;3.50;99.90
31455;DHT22;18084;53.028;8.834;2023-02-24T00:38:11;3.70;99.90
31455;DHT22;18084;53.028;8.834;2023-02-24T00:40:37;3.40;99.90
31455;DHT22;18084;53.028;8.834;2023-02-24T00:43:05;3.70;99.90
31455;DHT22;18084;53.028;8.834;2023-02-24T00:45:34;5.30;99.90
31455;DHT22;18084;53.028;8.834;2023-02-24T00:48:00;3.60;99.90
31455;DHT22;18084;53.028;8.834;2023-02-24T00:50:28;3.60;99.90
31455;DHT22;18084;53.028;8.834;2023-02-24T00:52:54;3.60;99.90
31455;DHT22;18084;53.028;8.834;2023-02-24T00:55:20;3.70;99.90
31455;DHT22;18084;53.028;8.834;2023-02-24T00:57:47;3.70;99.90
31455;DHT22;18084;53.028;8.834;2023-02-24T01:00:15;3.50;99.90
31455;DHT22;18084;53.028;8.834;2023-02-24T01:02:42;3.80;99.90
31455;DHT22;18084;53.028;8.834;2023-02-24T01:05:09;3.70;99.90
31455;DHT22;18084;53.028;8.834;2023-02-24T01:07:36;3.70;99.90
31455;DHT22;18084;53.028;8.834;2023-02-24T01:10:02;3.50;99.90
31455;DHT22;18084;53.028;8.834;2023-02-24T01:12:29;4.20;99.90
31455;DHT22;18084;53.028;8.834;2023-02-24T01:15:14;3.60;99.90
31455;DHT22;18084;53.028;8.834;2023-02-24T01:17:41;3.60;99.90
31455;DHT22;18084;53.028;8.834;2023-02-24T01:20:07;3.80;99.90
31455;DHT22;18084;53.028;8.834;2023-02-24T01:22:46;3.80;99.90
31455;DHT22;18084;53.028;8.834;2023-02-24T01:25:11;3.70;99.90
31455;DHT22;18084;53.028;8.834;2023-02-24T01:27:37;3.60;99.90
31455;DHT22;18084;53.028;8.834;2023-02-24T01:30:05;3.50;99.90
31455;DHT22;18084;53.028;8.834;2023-02-24T01:32:31;3.90;99.90
31455;DHT22;18084;53.028;8.834;2023-02-24T01:34:56;3.30;99.90
31455;DHT22;18084;53.028;8.834;2023-02-24T01:37:22;3.70;99.90
31455;DHT22;18084;53.028;8.834;2023-02-24T01:39:48;3.70;99.90
31455;DHT22;18084;53.028;8.834;2023-02-24T01:42:15;5.90;99.90
31455;DHT22;18084;53.028;8.834;2023-02-24T01:47:07;3.80;99.90
31455;DHT22;18084;53.028;8.834;2023-02-24T01:49:37;3.70;99.90
31455;DHT22;18084;53.028;8.834;2023-02-24T01:52:06;3.80;99.90
31455;DHT22;18084;53.028;8.834;2023-02-24T01:54:35;3.80;99.90
31455;DHT22;18084;53.028;8.834;2023-02-24T01:57:03;3.50;99.90
31455;DHT22;18084;53.028;8.834;2023-02-24T01:59:30;3.70;99.90
31455;DHT22;18084;53.028;8.834;2023-02-24T02:01:57;3.70;99.90
31455;DHT22;18084;53.028;8.834;2023-02-24T02:04:43;3.50;99.90
31455;DHT22;18084;53.028;8.834;2023-02-24T02:07:13;3.80;99.90
31455;DHT22;18084;53.028;8.834;2023-02-24T02:09:40;3.80;99.90
31455;DHT22;18084;53.028;8.834;2023-02-24T02:12:06;3.40;99.90
31455;DHT22;18084;53.028;8.834;2023-02-24T02:14:31;3.50;99.90
31455;DHT22;18084;53.028;8.834;2023-02-24T02:22:37;3.70;99.90
31455;DHT22;18084;53.028;8.834;2023-02-24T02:27:45;3.60;99.90
31455;DHT22;18084;53.028;8.834;2023-02-24T02:35:29;3.60;99.90
31455;DHT22;18084;53.028;8.834;2023-02-24T02:38:03;3.30;99.90
31455;DHT22;18084;53.028;8.834;2023-02-24T02:40:36;3.50;99.90
31455;DHT22;18084;53.028;8.834;2023-02-24T02:45:45;3.50;99.90
31455;DHT22;18084;53.028;8.834;2023-02-24T02:48:16;3.50;99.90
31455;DHT22;18084;53.028;8.834;2023-02-24T02:50:54;3.50;99.90
31455;DHT22;18084;53.028;8.834;2023-02-24T02:55:51;7.00;99.90
31455;DHT22;18084;53.028;8.834;2023-02-24T02:58:20;3.40;99.90
31455;DHT22;18084;53.028;8.834;2023-02-24T03:00:51;3.20;99.90
31455;DHT22;18084;53.028;8.834;2023-02-24T03:03:28;3.10;99.90
31455;DHT22;18084;53.028;8.834;2023-02-24T03:05:59;3.20;99.90
31455;DHT22;18084;53.028;8.834;2023-02-24T03:08:27;3.50;99.90
31455;DHT22;18084;53.028;8.834;2023-02-24T03:10:54;3.30;99.90
31455;DHT22;18084;53.028;8.834;2023-02-24T03:13:23;3.50;99.90
31455;DHT22;18084;53.028;8.834;2023-02-24T03:15:50;4.20;99.90
31455;DHT22;18084;53.028;8.834;2023-02-24T03:18:25;3.40;99.90
31455;DHT22;18084;53.028;8.834;2023-02-24T03:20:58;3.50;99.90
31455;DHT22;18084;53.028;8.834;2023-02-24T03:23:26;3.50;99.90
31455;DHT22;18084;53.028;8.834;2023-02-24T03:25:57;3.30;99.90
31455;DHT22;18084;53.028;8.834;2023-02-24T03:28:26;3.10;99.90
31455;DHT22;18084;53.028;8.834;2023-02-24T03:30:57;3.40;99.90
31455;DHT22;18084;53.028;8.834;2023-02-24T03:33:27;2.50;99.90
31455;DHT22;18084;53.028;8.834;2023-02-24T03:35:56;3.50;99.90
31455;DHT22;18084;53.028;8.834;2023-02-24T03:38:29;3.40;99.90
31455;DHT22;18084;53.028;8.834;2023-02-24T03:40:55;3.50;99.90
31455;DHT22;18084;53.028;8.834;2023-02-24T03:43:28;3.50;99.90
31455;DHT22;18084;53.028;8.834;2023-02-24T03:45:57;3.50;99.90
31455;DHT22;18084;53.028;8.834;2023-02-24T03:48:24;3.30;99.90
31455;DHT22;18084;53.028;8.834;2023-02-24T03:50:51;3.30;99.90
31455;DHT22;18084;53.028;8.834;2023-02-24T03:53:29;3.50;99.90
31455;DHT22;18084;53.028;8.834;2023-02-24T04:01:17;3.60;99.90
31455;DHT22;18084;53.028;8.834;2023-02-24T04:06:42;3.60;99.90
31455;DHT22;18084;53.028;8.834;2023-02-24T04:11:45;7.30;99.90
31455;DHT22;18084;53.028;8.834;2023-02-24T04:14:16;3.20;99.90
31455;DHT22;18084;53.028;8.834;2023-02-24T04:16:47;3.30;99.90
31455;DHT22;18084;53.028;8.834;2023-02-24T04:19:16;3.60;99.90
31455;DHT22;18084;53.028;8.834;2023-02-24T04:21:43;3.70;99.90
31455;DHT22;18084;53.028;8.834;2023-02-24T04:24:10;3.60;99.90
31455;DHT22;18084;53.028;8.834;2023-02-24T04:26:43;3.20;99.90
31455;DHT22;18084;53.028;8.834;2023-02-24T04:29:10;3.40;99.90
31455;DHT22;18084;53.028;8.834;2023-02-24T04:31:44;3.60;99.90
31455;DHT22;18084;53.028;8.834;2023-02-24T04:34:10;3.60;99.90
31455;DHT22;18084;53.028;8.834;2023-02-24T04:36:36;3.50;99.90
31455;DHT22;18084;53.028;8.834;2023-02-24T04:39:02;3.60;99.90
31455;DHT22;18084;53.028;8.834;2023-02-24T04:41:29;3.30;99.90
31455;DHT22;18084;53.028;8.834;2023-02-24T04:43:54;3.60;99.90
31455;DHT22;18084;53.028;8.834;2023-02-24T04:46:20;3.30;99.90
31455;DHT22;18084;53.028;8.834;2023-02-24T04:48:47;5.40;99.90
31455;DHT22;18084;53.028;8.834;2023-02-24T04:51:12;3.30;99.90
31455;DHT22;18084;53.028;8.834;2023-02-24T04:53:38;3.40;99.90
31455;DHT22;18084;53.028;8.834;2023-02-24T04:56:04;3.10;99.90
31455;DHT22;18084;53.028;8.834;2023-02-24T04:58:34;3.20;99.90
31455;DHT22;18084;53.028;8.834;2023-02-24T05:00:59;3.30;99.90
31455;DHT22;18084;53.028;8.834;2023-02-24T05:03:25;7.20;99.90
31455;DHT22;18084;53.028;8.834;2023-02-24T05:05:58;3.30;99.90
31455;DHT22;18084;53.028;8.834;2023-02-24T05:08:27;3.10;99.90
31455;DHT22;18084;53.028;8.834;2023-02-24T05:10:53;3.50;99.90
31455;DHT22;18084;53.028;8.834;2023-02-24T05:13:20;3.50;99.90
31455;DHT22;18084;53.028;8.834;2023-02-24T05:15:49;3.50;99.90
31455;DHT22;18084;53.028;8.834;2023-02-24T05:18:14;3.60;99.90
31455;DHT22;18084;53.028;8.834;2023-02-24T05:20:45;3.30;99.90
31455;DHT22;18084;53.028;8.834;2023-02-24T05:23:30;3.10;99.90
31455;DHT22;18084;53.028;8.834;2023-02-24T05:25:56;3.10;99.90
31455;DHT22;18084;53.028;8.834;2023-02-24T05:28:23;3.40;99.90
31455;DHT22;18084;53.028;8.834;2023-02-24T05:30:49;3.40;99.90
31455;DHT22;18084;53.028;8.834;2023-02-24T05:33:15;3.50;99.90
31455;DHT22;18084;53.028;8.834;2023-02-24T05:35:48;3.40;99.90
31455;DHT22;18084;53.028;8.834;2023-02-24T05:38:15;3.50;99.90
31455;DHT22;18084;53.028;8.834;2023-02-24T05:40:44;3.50;99.90
31455;DHT22;18084;53.028;8.834;2023-02-24T05:43:12;3.30;99.90
31455;DHT22;18084;53.028;8.834;2023-02-24T05:45:42;3.50;99.90
31455;DHT22;18084;53.028;8.834;2023-02-24T05:48:10;5.90;99.90
31455;DHT22;18084;53.028;8.834;2023-02-24T05:50:35;7.30;99.90
31455;DHT22;18084;53.028;8.834;2023-02-24T05:53:03;6.80;99.90
31455;DHT22;18084;53.028;8.834;2023-02-24T05:55:28;3.50;99.90
31455;DHT22;18084;53.028;8.834;2023-02-24T05:57:56;3.30;99.90
31455;DHT22;18084;53.028;8.834;2023-02-24T06:00:23;3.20;99.90
31455;DHT22;18084;53.028;8.834;2023-02-24T06:02:50;3.60;99.90
31455;DHT22;18084;53.028;8.834;2023-02-24T06:05:16;3.80;99.90
31455;DHT22;18084;53.028;8.834;2023-02-24T06:07:53;3.40;99.90
31455;DHT22;18084;53.028;8.834;2023-02-24T06:10:20;3.10;99.90
31455;DHT22;18084;53.028;8.834;2023-02-24T06:12:46;3.50;99.90
31455;DHT22;18084;53.028;8.834;2023-02-24T06:15:12;3.50;99.90
31455;DHT22;18084;53.028;8.834;2023-02-24T06:17:37;3.40;99.90
31455;DHT22;18084;53.028;8.834;2023-02-24T06:20:03;3.30;99.90
31455;DHT22;18084;53.028;8.834;2023-02-24T06:22:39;3.60;99.90
31455;DHT22;18084;53.028;8.834;2023-02-24T06:25:07;3.50;99.90
31455;DHT22;18084;53.028;8.834;2023-02-24T06:27:32;3.60;99.90
31455;DHT22;18084;53.028;8.834;2023-02-24T06:30:00;3.50;99.90
31455;DHT22;18084;53.028;8.834;2023-02-24T06:32:26;3.40;99.90
31455;DHT22;18084;53.028;8.834;2023-02-24T06:34:52;3.50;99.90
31455;DHT22;18084;53.028;8.834;2023-02-24T06:37:21;3.50;99.90
31455;DHT22;18084;53.028;8.834;2023-02-24T06:39:47;3.50;99.90
31455;DHT22;18084;53.028;8.834;2023-02-24T06:42:12;3.40;99.90
31455;DHT22;18084;53.028;8.834;2023-02-24T06:44:38;6.60;99.90
31455;DHT22;18084;53.028;8.834;2023-02-24T06:47:05;3.80;99.90
31455;DHT22;18084;53.028;8.834;2023-02-24T06:49:31;3.20;99.90
31455;DHT22;18084;53.028;8.834;2023-02-24T06:51:58;3.50;99.90
31455;DHT22;18084;53.028;8.834;2023-02-24T06:54:24;3.60;99.90
31455;DHT22;18084;53.028;8.834;2023-02-24T06:56:52;3.20;99.90
31455;DHT22;18084;53.028;8.834;2023-02-24T06:59:19;3.70;99.90
31455;DHT22;18084;53.028;8.834;2023-02-24T07:01:53;3.40;99.90
31455;DHT22;18084;53.028;8.834;2023-02-24T07:04:18;3.40;99.90
31455;DHT22;18084;53.028;8.834;2023-02-24T07:06:49;3.10;99.90
31455;DHT22;18084;53.028;8.834;2023-02-24T07:09:17;3.30;99.90
31455;DHT22;18084;53.028;8.834;2023-02-24T07:11:44;3.10;99.90
31455;DHT22;18084;53.028;8.834;2023-02-24T07:14:16;2.60;99.90
31455;DHT22;18084;53.028;8.834;2023-02-24T07:16:42;3.10;99.90
31455;DHT22;18084;53.028;8.834;2023-02-24T07:19:13;2.60;99.90
31455;DHT22;18084;53.028;8.834;2023-02-24T07:21:43;3.20;99.90
31455;DHT22;18084;53.028;8.834;2023-02-24T07:24:14;3.20;99.90
31455;DHT22;18084;53.028;8.834;2023-02-24T07:26:56;3.10;99.90
31455;DHT22;18084;53.028;8.834;2023-02-24T07:29:22;3.10;99.90
31455;DHT22;18084;53.028;8.834;2023-02-24T07:31:48;2.90;99.90
31455;DHT22;18084;53.028;8.834;2023-02-24T07:34:13;3.40;99.90
31455;DHT22;18084;53.028;8.834;2023-02-24T07:36:39;2.90;99.90
31455;DHT22;18084;53.028;8.834;2023-02-24T07:39:13;3.10;99.90
31455;DHT22;18084;53.028;8.834;2023-02-24T07:41:40;2.70;99.90
31455;DHT22;18084;53.028;8.834;2023-02-24T07:44:12;2.90;99.90
31455;DHT22;18084;53.028;8.834;2023-02-24T07:46:40;3.20;99.90
31455;DHT22;18084;53.028;8.834;2023-02-24T07:49:08;2.60;99.90
31455;DHT22;18084;53.028;8.834;2023-02-24T07:51:36;3.10;99.90
31455;DHT22;18084;53.028;8.834;2023-02-24T07:54:01;3.10;99.90
31455;DHT22;18084;53.028;8.834;2023-02-24T07:56:28;3.30;99.90
31455;DHT22;18084;53.028;8.834;2023-02-24T07:59:02;2.80;99.90
31455;DHT22;18084;53.028;8.834;2023-02-24T08:01:28;3.40;99.90
31455;DHT22;18084;53.028;8.834;2023-02-24T08:03:55;3.10;99.90
31455;DHT22;18084;53.028;8.834;2023-02-24T08:06:21;3.20;99.90
31455;DHT22;18084;53.028;8.834;2023-02-24T08:09:03;2.90;99.90
31455;DHT22;18084;53.028;8.834;2023-02-24T08:14:23;2.90;99.90
31455;DHT22;18084;53.028;8.834;2023-02-24T08:16:50;3.10;99.90
31455;DHT22;18084;53.028;8.834;2023-02-24T08:19:17;2.80;99.90
31455;DHT22;18084;53.028;8.834;2023-02-24T08:21:46;3.10;99.90
31455;DHT22;18084;53.028;8.834;2023-02-24T08:24:19;2.90;99.90
31455;DHT22;18084;53.028;8.834;2023-02-24T08:26:51;3.10;99.90
31455;DHT22;18084;53.028;8.834;2023-02-24T08:29:37;2.90;99.90
31455;DHT22;18084;53.028;8.834;2023-02-24T08:32:22;6.40;99.90
31455;DHT22;18084;53.028;8.834;2023-02-24T08:34:49;5.20;99.90
31455;DHT22;18084;53.028;8.834;2023-02-24T08:37:18;3.20;99.90
31455;DHT22;18084;53.028;8.834;2023-02-24T08:39:44;2.70;99.90
31455;DHT22;18084;53.028;8.834;2023-02-24T08:42:10;5.80;99.90
31455;DHT22;18084;53.028;8.834;2023-02-24T08:44:39;2.70;99.90
31455;DHT22;18084;53.028;8.834;2023-02-24T08:47:04;2.80;99.90
31455;DHT22;18084;53.028;8.834;2023-02-24T08:49:31;3.20;99.90
31455;DHT22;18084;53.028;8.834;2023-02-24T08:51:57;2.40;99.90
31455;DHT22;18084;53.028;8.834;2023-02-24T08:54:26;2.90;99.90
31455;DHT22;18084;53.028;8.834;2023-02-24T08:56:55;2.60;99.90
31455;DHT22;18084;53.028;8.834;2023-02-24T08:59:21;3.00;99.90
31455;DHT22;18084;53.028;8.834;2023-02-24T09:01:54;2.80;99.90
31455;DHT22;18084;53.028;8.834;2023-02-24T09:04:39;3.40;99.90
31455;DHT22;18084;53.028;8.834;2023-02-24T09:07:04;2.80;99.90
31455;DHT22;18084;53.028;8.834;2023-02-24T09:09:35;2.60;99.90
31455;DHT22;18084;53.028;8.834;2023-02-24T09:12:06;2.80;99.90
31455;DHT22;18084;53.028;8.834;2023-02-24T09:14:32;2.90;99.90
31455;DHT22;18084;53.028;8.834;2023-02-24T09:17:01;2.70;99.90
31455;DHT22;18084;53.028;8.834;2023-02-24T09:19:44;2.80;99.90
31455;DHT22;18084;53.028;8.834;2023-02-24T09:22:19;3.00;99.90
31455;DHT22;18084;53.028;8.834;2023-02-24T09:24:54;2.40;99.90
31455;DHT22;18084;53.028;8.834;2023-02-24T09:27:39;2.80;99.90
31455;DHT22;18084;53.028;8.834;2023-02-24T09:30:09;2.80;99.90
31455;DHT22;18084;53.028;8.834;2023-02-24T09:32:50;3.10;99.90
31455;DHT22;18084;53.028;8.834;2023-02-24T09:35:28;2.80;99.90
31455;DHT22;18084;53.028;8.834;2023-02-24T09:38:03;3.10;99.90
31455;DHT22;18084;53.028;8.834;2023-02-24T09:40:31;3.10;99.90
31455;DHT22;18084;53.028;8.834;2023-02-24T09:43:05;3.00;99.90
31455;DHT22;18084;53.028;8.834;2023-02-24T09:45:35;2.90;99.90
31455;DHT22;18084;53.028;8.834;2023-02-24T09:48:13;3.10;99.90
31455;DHT22;18084;53.028;8.834;2023-02-24T09:50:40;3.20;99.90
31455;DHT22;18084;53.028;8.834;2023-02-24T09:53:25;3.00;99.90
31455;DHT22;18084;53.028;8.834;2023-02-24T10:01:03;3.20;99.90
31455;DHT22;18084;53.028;8.834;2023-02-24T10:03:59;3.40;99.90
31455;DHT22;18084;53.028;8.834;2023-02-24T10:06:30;3.40;99.90
31455;DHT22;18084;53.028;8.834;2023-02-24T10:11:38;3.40;99.90
31455;DHT22;18084;53.028;8.834;2023-02-24T10:14:08;3.20;99.90
31455;DHT22;18084;53.028;8.834;2023-02-24T10:16:43;3.40;99.90
31455;DHT22;18084;53.028;8.834;2023-02-24T10:19:13;3.20;99.90
31455;DHT22;18084;53.028;8.834;2023-02-24T10:21:43;3.10;99.90
31455;DHT22;18084;53.028;8.834;2023-02-24T10:26:55;2.90;99.90
31455;DHT22;18084;53.028;8.834;2023-02-24T10:34:41;3.40;99.90
31455;DHT22;18084;53.028;8.834;2023-02-24T10:37:13;3.50;99.90
31455;DHT22;18084;53.028;8.834;2023-02-24T10:39:38;3.40;99.90
31455;DHT22;18084;53.028;8.834;2023-02-24T10:42:08;3.10;99.90
31455;DHT22;18084;53.028;8.834;2023-02-24T10:44:40;3.20;99.90
31455;DHT22;18084;53.028;8.834;2023-02-24T10:47:22;3.40;99.90
31455;DHT22;18084;53.028;8.834;2023-02-24T10:50:02;3.40;99.90
31455;DHT22;18084;53.028;8.834;2023-02-24T10:55:02;3.40;99.90
31455;DHT22;18084;53.028;8.834;2023-02-24T10:57:52;3.30;99.90
31455;DHT22;18084;53.028;8.834;2023-02-24T11:00:19;3.30;99.90
31455;DHT22;18084;53.028;8.834;2023-02-24T11:02:56;3.40;99.90
31455;DHT22;18084;53.028;8.834;2023-02-24T11:05:34;3.20;99.90
31455;DHT22;18084;53.028;8.834;2023-02-24T11:08:15;3.00;99.90
31455;DHT22;18084;53.028;8.834;2023-02-24T11:11:15;3.80;99.90
31455;DHT22;18084;53.028;8.834;2023-02-24T11:13:53;2.90;99.90
31455;DHT22;18084;53.028;8.834;2023-02-24T11:16:45;3.40;99.90
31455;DHT22;18084;53.028;8.834;2023-02-24T11:19:30;3.50;99.90
31455;DHT22;18084;53.028;8.834;2023-02-24T11:21:56;3.20;99.90
31455;DHT22;18084;53.028;8.834;2023-02-24T11:24:22;3.30;99.90
31455;DHT22;18084;53.028;8.834;2023-02-24T11:26:48;3.40;99.90
31455;DHT22;18084;53.028;8.834;2023-02-24T11:29:26;3.30;99.90
31455;DHT22;18084;53.028;8.834;2023-02-24T11:32:00;3.60;99.90
31455;DHT22;18084;53.028;8.834;2023-02-24T11:34:31;3.60;99.90
31455;DHT22;18084;53.028;8.834;2023-02-24T11:39:42;3.70;99.90
31455;DHT22;18084;53.028;8.834;2023-02-24T11:42:18;3.40;99.90
31455;DHT22;18084;53.028;8.834;2023-02-24T11:47:15;3.80;99.90
31455;DHT22;18084;53.028;8.834;2023-02-24T11:49:47;3.90;99.90
31455;DHT22;18084;53.028;8.834;2023-02-24T11:52:19;4.00;99.90
31455;DHT22;18084;53.028;8.834;2023-02-24T11:54:47;3.90;99.90
31455;DHT22;18084;53.028;8.834;2023-02-24T11:57:19;4.50;99.90
31455;DHT22;18084;53.028;8.834;2023-02-24T11:59:46;4.00;99.90
31455;DHT22;18084;53.028;8.834;2023-02-24T12:05:08;4.10;99.90
31455;DHT22;18084;53.028;8.834;2023-02-24T12:07:41;4.10;99.90
31455;DHT22;18084;53.028;8.834;2023-02-24T12:15:21;4.10;99.90
31455;DHT22;18084;53.028;8.834;2023-02-24T12:17:53;4.10;99.90
31455;DHT22;18084;53.028;8.834;2023-02-24T12:22:57;4.00;99.90
31455;DHT22;18084;53.028;8.834;2023-02-24T12:25:26;4.30;99.90
31455;DHT22;18084;53.028;8.834;2023-02-24T12:28:04;7.30;99.90
31455;DHT22;18084;53.028;8.834;2023-02-24T12:30:49;4.50;99.90
31455;DHT22;18084;53.028;8.834;2023-02-24T12:43:23;4.40;99.90
31455;DHT22;18084;53.028;8.834;2023-02-24T12:53:32;5.00;99.90
31455;DHT22;18084;53.028;8.834;2023-02-24T12:58:27;5.10;99.90
31455;DHT22;18084;53.028;8.834;2023-02-24T13:03:44;5.10;99.90
31455;DHT22;18084;53.028;8.834;2023-02-24T13:06:24;5.10;99.90
31455;DHT22;18084;53.028;8.834;2023-02-24T13:09:07;5.20;99.90
31455;DHT22;18084;53.028;8.834;2023-02-24T13:11:39;5.20;99.90
31455;DHT22;18084;53.028;8.834;2023-02-24T13:14:12;5.10;99.90
31455;DHT22;18084;53.028;8.834;2023-02-24T13:16:41;5.30;99.90
31455;DHT22;18084;53.028;8.834;2023-02-24T13:21:41;5.30;99.90
31455;DHT22;18084;53.028;8.834;2023-02-24T13:24:15;5.30;99.90
31455;DHT22;18084;53.028;8.834;2023-02-24T13:26:44;5.30;99.90
31455;DHT22;18084;53.028;8.834;2023-02-24T13:29:10;5.20;99.90
31455;DHT22;18084;53.028;8.834;2023-02-24T13:31:43;5.70;99.90
31455;DHT22;18084;53.028;8.834;2023-02-24T13:36:50;6.20;99.90
31455;DHT22;18084;53.028;8.834;2023-02-24T13:39:30;6.30;99.90
31455;DHT22;18084;53.028;8.834;2023-02-24T13:44:28;6.30;99.90
31455;DHT22;18084;53.028;8.834;2023-02-24T14:02:35;6.60;99.90
31455;DHT22;18084;53.028;8.834;2023-02-24T14:05:07;6.60;99.90
31455;DHT22;18084;53.028;8.834;2023-02-24T14:07:34;6.60;99.90
31455;DHT22;18084;53.028;8.834;2023-02-24T14:10:02;6.50;99.90
31455;DHT22;18084;53.028;8.834;2023-02-24T14:12:30;6.60;99.90
31455;DHT22;18084;53.028;8.834;2023-02-24T14:14:56;6.60;99.90
31455;DHT22;18084;53.028;8.834;2023-02-24T14:17:34;6.70;99.90
31455;DHT22;18084;53.028;8.834;2023-02-24T14:22:31;6.90;99.90
31455;DHT22;18084;53.028;8.834;2023-02-24T14:25:04;6.50;99.90
31455;DHT22;18084;53.028;8.834;2023-02-24T14:27:33;6.90;99.90
31455;DHT22;18084;53.028;8.834;2023-02-24T14:29:59;6.90;99.90
31455;DHT22;18084;53.028;8.834;2023-02-24T14:32:25;6.50;99.90
31455;DHT22;18084;53.028;8.834;2023-02-24T14:53:06;7.10;99.90
31455;DHT22;18084;53.028;8.834;2023-02-24T14:55:35;7.40;99.90
31455;DHT22;18084;53.028;8.834;2023-02-24T14:58:03;7.60;99.90
31455;DHT22;18084;53.028;8.834;2023-02-24T15:00:31;7.70;99.90
31455;DHT22;18084;53.028;8.834;2023-02-24T15:03:15;7.70;99.90
31455;DHT22;18084;53.028;8.834;2023-02-24T15:05:46;7.70;99.90
31455;DHT22;18084;53.028;8.834;2023-02-24T15:08:17;7.70;99.90
31455;DHT22;18084;53.028;8.834;2023-02-24T15:10:47;7.70;99.90
31455;DHT22;18084;53.028;8.834;2023-02-24T15:18:36;7.60;99.90
31455;DHT22;18084;53.028;8.834;2023-02-24T15:21:03;7.50;99.90
31455;DHT22;18084;53.028;8.834;2023-02-24T15:23:32;7.50;99.90
31455;DHT22;18084;53.028;8.834;2023-02-24T15:25:58;7.40;99.90
31455;DHT22;18084;53.028;8.834;2023-02-24T15:28:25;7.40;99.90
31455;DHT22;18084;53.028;8.834;2023-02-24T15:31:36;7.30;99.90
31455;DHT22;18084;53.028;8.834;2023-02-24T15:33:38;7.30;99.90
31455;DHT22;18084;53.028;8.834;2023-02-24T15:36:11;7.30;99.90
31455;DHT22;18084;53.028;8.834;2023-02-24T15:38:39;7.30;99.90
31455;DHT22;18084;53.028;8.834;2023-02-24T15:41:06;7.30;99.90
31455;DHT22;18084;53.028;8.834;2023-02-24T15:43:33;7.30;99.90
31455;DHT22;18084;53.028;8.834;2023-02-24T15:45:59;7.20;99.90
31455;DHT22;18084;53.028;8.834;2023-02-24T15:48:25;7.10;99.90
31455;DHT22;18084;53.028;8.834;2023-02-24T15:50:52;7.00;99.90
31455;DHT22;18084;53.028;8.834;2023-02-24T15:53:18;6.80;99.90
31455;DHT22;18084;53.028;8.834;2023-02-24T15:55:43;6.70;99.90
31455;DHT22;18084;53.028;8.834;2023-02-24T15:58:16;6.60;99.90
31455;DHT22;18084;53.028;8.834;2023-02-24T16:00:42;6.50;99.90
31455;DHT22;18084;53.028;8.834;2023-02-24T16:03:07;6.40;99.90
31455;DHT22;18084;53.028;8.834;2023-02-24T16:05:33;6.40;99.90
31455;DHT22;18084;53.028;8.834;2023-02-24T16:07:58;6.40;99.90
31455;DHT22;18084;53.028;8.834;2023-02-24T16:10:27;6.40;99.90
31455;DHT22;18084;53.028;8.834;2023-02-24T16:12:54;6.30;99.90
31455;DHT22;18084;53.028;8.834;2023-02-24T16:15:22;6.30;99.90
31455;DHT22;18084;53.028;8.834;2023-02-24T16:17:48;6.20;99.90
31455;DHT22;18084;53.028;8.834;2023-02-24T16:20:15;6.20;99.90
31455;DHT22;18084;53.028;8.834;2023-02-24T16:22:41;6.20;99.90
31455;DHT22;18084;53.028;8.834;2023-02-24T16:25:07;6.20;99.90
31455;DHT22;18084;53.028;8.834;2023-02-24T16:27:33;6.20;99.90
31455;DHT22;18084;53.028;8.834;2023-02-24T16:29:58;6.20;99.90
31455;DHT22;18084;53.028;8.834;2023-02-24T16:32:24;6.10;99.90
31455;DHT22;18084;53.028;8.834;2023-02-24T16:34:51;6.10;99.90
31455;DHT22;18084;53.028;8.834;2023-02-24T16:37:24;6.00;99.90
31455;DHT22;18084;53.028;8.834;2023-02-24T16:39:51;6.00;99.90
31455;DHT22;18084;53.028;8.834;2023-02-24T16:42:17;6.20;99.90
31455;DHT22;18084;53.028;8.834;2023-02-24T16:44:43;5.90;99.90
31455;DHT22;18084;53.028;8.834;2023-02-24T16:47:13;5.90;99.90
31455;DHT22;18084;53.028;8.834;2023-02-24T16:49:39;5.80;99.90
31455;DHT22;18084;53.028;8.834;2023-02-24T16:52:09;5.80;99.90
31455;DHT22;18084;53.028;8.834;2023-02-24T16:54:35;5.80;99.90
31455;DHT22;18084;53.028;8.834;2023-02-24T16:57:00;5.80;99.90
31455;DHT22;18084;53.028;8.834;2023-02-24T16:59:26;5.70;99.90
31455;DHT22;18084;53.028;8.834;2023-02-24T17:02:01;5.70;99.90
31455;DHT22;18084;53.028;8.834;2023-02-24T17:04:26;5.60;99.90
31455;DHT22;18084;53.028;8.834;2023-02-24T17:06:52;5.60;99.90
31455;DHT22;18084;53.028;8.834;2023-02-24T17:09:17;5.70;99.90
31455;DHT22;18084;53.028;8.834;2023-02-24T17:11:43;5.70;99.90
31455;DHT22;18084;53.028;8.834;2023-02-24T17:14:19;5.60;99.90
31455;DHT22;18084;53.028;8.834;2023-02-24T17:16:44;5.60;99.90
31455;DHT22;18084;53.028;8.834;2023-02-24T17:19:10;5.50;99.90
31455;DHT22;18084;53.028;8.834;2023-02-24T17:21:35;5.60;99.90
31455;DHT22;18084;53.028;8.834;2023-02-24T17:24:04;5.50;99.90
31455;DHT22;18084;53.028;8.834;2023-02-24T17:26:29;5.50;99.90
31455;DHT22;18084;53.028;8.834;2023-02-24T17:28:55;5.50;99.90
31455;DHT22;18084;53.028;8.834;2023-02-24T17:31:20;5.40;99.90
31455;DHT22;18084;53.028;8.834;2023-02-24T17:33:47;5.30;99.90
31455;DHT22;18084;53.028;8.834;2023-02-24T17:36:12;5.40;99.90
31455;DHT22;18084;53.028;8.834;2023-02-24T17:38:37;5.40;99.90
31455;DHT22;18084;53.028;8.834;2023-02-24T17:41:03;5.30;99.90
31455;DHT22;18084;53.028;8.834;2023-02-24T17:43:28;5.30;99.90
31455;DHT22;18084;53.028;8.834;2023-02-24T17:45:54;5.30;99.90
31455;DHT22;18084;53.028;8.834;2023-02-24T17:48:20;5.30;99.90
31455;DHT22;18084;53.028;8.834;2023-02-24T17:50:46;5.20;99.90
31455;DHT22;18084;53.028;8.834;2023-02-24T17:53:11;5.20;99.90
31455;DHT22;18084;53.028;8.834;2023-02-24T17:55:37;5.20;99.90
31455;DHT22;18084;53.028;8.834;2023-02-24T17:58:02;5.20;99.90
31455;DHT22;18084;53.028;8.834;2023-02-24T18:00:28;5.20;99.90
31455;DHT22;18084;53.028;8.834;2023-02-24T18:02:53;5.20;99.90
31455;DHT22;18084;53.028;8.834;2023-02-24T18:05:19;5.20;99.90
31455;DHT22;18084;53.028;8.834;2023-02-24T18:07:44;5.20;99.90
31455;DHT22;18084;53.028;8.834;2023-02-24T18:10:10;5.20;99.90
31455;DHT22;18084;53.028;8.834;2023-02-24T18:12:36;5.10;99.90
31455;DHT22;18084;53.028;8.834;2023-02-24T18:15:02;5.10;99.90
31455;DHT22;18084;53.028;8.834;2023-02-24T18:17:28;5.00;99.90
31455;DHT22;18084;53.028;8.834;2023-02-24T18:19:53;5.00;99.90